Ana Sayfa
METAR-TAF:

METAR-TAF

Havaalanları :

Quakertown Airport

Quakertown, Pensilvanya, Amerika Birleşik Devletleri

Enlem: 40-26-06N, Boylam: 075-22-54W, yükseklik: 160 m

Güncel hava durumu gözlemi

Rapor saat 01:40 UTC de 18 dakika önce yapıldı.
Sakin rüzgar
Sıcaklık 5°C
Nem 93%
Basınç 1007 hPa
Görüş mesafesi: 16.1 km
2200 ft yükseklikte az bulutlu
6500 ft yükseklikte az bulutlu
8000 ft yükseklikte çok bulutlu

METAR: KUKT 190140Z AUTO 00000KT 10SM FEW022 FEW065 OVC080 05/04 A2973 RMK A01

Saat: 20:58 (01:58 UTC)


TAF: eksik

4.000'den fazla havaalanı için hava durumu gözlemleri ve tahminleri (METAR ve TAF raporları).

Kullanılabilir istasyonlar harita üzerinde sarı ve kırmızı noktalarla gösterilir.

İstasyonun adını görmek için fareyi noktanın üzerinde gezdirin.

Sonrasında hava gözlem ve tahminlerini görmek için tıklayın.

Haritayı değiştirmek için: yaklaştırmak için siyah artı işaretli yeşil düğmeye ve uzaklaştırmak için de eksi işaretli düğmeye hızla tıklayın; bitişik haritalar için yeşil okları kullanın.


METAR-TAF: